sensor_id;sensor_type;location;lat;lon;timestamp;pressure;altitude;pressure_sealevel;temperature;humidity
9189;BME280;34313;50.780;6.084;2023-04-02T00:03:24;98727.47;;;7.80;100.00
9189;BME280;34313;50.780;6.084;2023-04-02T00:05:50;98732.59;;;7.82;100.00
9189;BME280;34313;50.780;6.084;2023-04-02T00:08:26;98732.59;;;7.82;100.00
9189;BME280;34313;50.780;6.084;2023-04-02T00:10:58;98738.06;;;7.79;100.00
9189;BME280;34313;50.780;6.084;2023-04-02T00:13:31;98727.25;;;7.69;100.00
9189;BME280;34313;50.780;6.084;2023-04-02T00:15:58;98740.44;;;7.67;100.00
9189;BME280;34313;50.780;6.084;2023-04-02T00:18:24;98743.00;;;7.69;100.00
9189;BME280;34313;50.780;6.084;2023-04-02T00:21:23;98755.94;;;7.72;100.00
9189;BME280;34313;50.780;6.084;2023-04-02T00:23:53;98749.56;;;7.76;100.00
9189;BME280;34313;50.780;6.084;2023-04-02T00:26:26;98756.59;;;7.75;100.00
9189;BME280;34313;50.780;6.084;2023-04-02T00:28:53;98762.84;;;7.73;100.00
9189;BME280;34313;50.780;6.084;2023-04-02T00:31:19;98766.91;;;7.79;100.00
9189;BME280;34313;50.780;6.084;2023-04-02T00:33:45;98768.00;;;7.74;100.00
9189;BME280;34313;50.780;6.084;2023-04-02T00:36:12;98771.28;;;7.78;100.00
9189;BME280;34313;50.780;6.084;2023-04-02T00:38:37;98775.28;;;7.69;100.00
9189;BME280;34313;50.780;6.084;2023-04-02T00:41:12;98785.63;;;7.72;100.00
9189;BME280;34313;50.780;6.084;2023-04-02T00:43:43;98788.78;;;7.63;100.00
9189;BME280;34313;50.780;6.084;2023-04-02T00:46:14;98795.41;;;7.54;100.00
9189;BME280;34313;50.780;6.084;2023-04-02T00:48:48;98782.13;;;7.57;100.00
9189;BME280;34313;50.780;6.084;2023-04-02T00:51:20;98787.28;;;7.59;100.00
9189;BME280;34313;50.780;6.084;2023-04-02T00:53:47;98792.28;;;7.48;100.00
9189;BME280;34313;50.780;6.084;2023-04-02T00:56:22;98799.03;;;7.52;100.00
9189;BME280;34313;50.780;6.084;2023-04-02T00:58:52;98799.44;;;7.60;100.00
9189;BME280;34313;50.780;6.084;2023-04-02T01:01:25;98801.31;;;7.58;100.00
9189;BME280;34313;50.780;6.084;2023-04-02T01:03:56;98815.44;;;7.55;100.00
9189;BME280;34313;50.780;6.084;2023-04-02T01:06:25;98816.63;;;7.50;100.00
9189;BME280;34313;50.780;6.084;2023-04-02T01:08:56;98822.72;;;7.34;100.00
9189;BME280;34313;50.780;6.084;2023-04-02T01:16:34;98837.03;;;7.29;100.00
9189;BME280;34313;50.780;6.084;2023-04-02T01:21:56;98845.50;;;7.18;100.00
9189;BME280;34313;50.780;6.084;2023-04-02T01:24:29;98846.41;;;7.17;100.00
9189;BME280;34313;50.780;6.084;2023-04-02T01:26:58;98850.81;;;7.16;100.00
9189;BME280;34313;50.780;6.084;2023-04-02T01:29:27;98845.50;;;7.18;100.00
9189;BME280;34313;50.780;6.084;2023-04-02T01:31:57;98861.28;;;7.16;100.00
9189;BME280;34313;50.780;6.084;2023-04-02T01:34:25;98858.06;;;7.11;100.00
9189;BME280;34313;50.780;6.084;2023-04-02T01:42:19;98865.78;;;7.14;100.00
9189;BME280;34313;50.780;6.084;2023-04-02T01:45:10;98883.69;;;7.06;100.00
9189;BME280;34313;50.780;6.084;2023-04-02T01:47:37;98883.19;;;6.99;100.00
9189;BME280;34313;50.780;6.084;2023-04-02T01:50:19;98890.69;;;7.06;100.00
9189;BME280;34313;50.780;6.084;2023-04-02T01:52:48;98891.78;;;6.86;100.00
9189;BME280;34313;50.780;6.084;2023-04-02T01:55:18;98896.31;;;6.49;100.00
9189;BME280;34313;50.780;6.084;2023-04-02T01:57:47;98891.06;;;6.49;100.00
9189;BME280;34313;50.780;6.084;2023-04-02T02:00:16;98892.00;;;6.48;100.00
9189;BME280;34313;50.780;6.084;2023-04-02T02:02:45;98917.06;;;6.52;100.00
9189;BME280;34313;50.780;6.084;2023-04-02T02:05:13;98918.44;;;6.59;100.00
9189;BME280;34313;50.780;6.084;2023-04-02T02:07:39;98909.06;;;6.55;100.00
9189;BME280;34313;50.780;6.084;2023-04-02T02:10:10;98920.44;;;6.54;100.00
9189;BME280;34313;50.780;6.084;2023-04-02T02:12:38;98923.69;;;6.41;100.00
9189;BME280;34313;50.780;6.084;2023-04-02T02:15:06;98932.16;;;6.47;100.00
9189;BME280;34313;50.780;6.084;2023-04-02T02:17:37;98940.19;;;6.43;100.00
9189;BME280;34313;50.780;6.084;2023-04-02T02:20:03;98941.09;;;6.60;100.00
9189;BME280;34313;50.780;6.084;2023-04-02T02:22:37;98952.34;;;6.62;100.00
9189;BME280;34313;50.780;6.084;2023-04-02T02:25:09;98956.59;;;6.47;100.00
9189;BME280;34313;50.780;6.084;2023-04-02T02:30:31;98969.84;;;6.44;100.00
9189;BME280;34313;50.780;6.084;2023-04-02T02:33:06;98973.69;;;6.37;100.00
9189;BME280;34313;50.780;6.084;2023-04-02T02:35:37;98978.66;;;6.41;100.00
9189;BME280;34313;50.780;6.084;2023-04-02T02:38:28;98977.00;;;6.40;100.00
9189;BME280;34313;50.780;6.084;2023-04-02T02:41:02;98990.97;;;6.22;100.00
9189;BME280;34313;50.780;6.084;2023-04-02T02:43:28;98992.06;;;5.99;100.00
9189;BME280;34313;50.780;6.084;2023-04-02T02:45:55;98993.72;;;6.01;100.00
9189;BME280;34313;50.780;6.084;2023-04-02T02:48:25;98998.78;;;6.04;100.00
9189;BME280;34313;50.780;6.084;2023-04-02T02:50:53;99003.09;;;6.05;100.00
9189;BME280;34313;50.780;6.084;2023-04-02T02:53:22;99007.41;;;5.87;100.00
9189;BME280;34313;50.780;6.084;2023-04-02T02:55:50;99015.25;;;5.87;100.00
9189;BME280;34313;50.780;6.084;2023-04-02T02:58:22;99017.47;;;5.97;100.00
9189;BME280;34313;50.780;6.084;2023-04-02T03:00:50;99016.88;;;5.90;100.00
9189;BME280;34313;50.780;6.084;2023-04-02T03:03:19;99021.84;;;5.96;100.00
9189;BME280;34313;50.780;6.084;2023-04-02T03:05:52;99026.16;;;5.97;100.00
9189;BME280;34313;50.780;6.084;2023-04-02T03:08:26;99039.56;;;5.90;100.00
9189;BME280;34313;50.780;6.084;2023-04-02T03:11:03;99038.56;;;5.92;100.00
9189;BME280;34313;50.780;6.084;2023-04-02T03:13:34;99040.53;;;5.87;100.00
9189;BME280;34313;50.780;6.084;2023-04-02T03:21:48;99060.50;;;5.90;100.00
9189;BME280;34313;50.780;6.084;2023-04-02T03:24:19;99060.22;;;5.77;100.00
9189;BME280;34313;50.780;6.084;2023-04-02T03:29:41;99070.69;;;5.77;100.00
9189;BME280;34313;50.780;6.084;2023-04-02T03:32:16;99079.13;;;5.82;100.00
9189;BME280;34313;50.780;6.084;2023-04-02T03:34:54;99088.13;;;5.76;100.00
9189;BME280;34313;50.780;6.084;2023-04-02T03:37:41;99097.81;;;5.74;100.00
9189;BME280;34313;50.780;6.084;2023-04-02T03:40:34;99101.53;;;5.68;100.00
9189;BME280;34313;50.780;6.084;2023-04-02T03:43:11;99097.81;;;5.54;100.00
9189;BME280;34313;50.780;6.084;2023-04-02T03:45:41;99101.22;;;5.56;100.00
9189;BME280;34313;50.780;6.084;2023-04-02T03:48:15;99112.97;;;5.47;100.00
9189;BME280;34313;50.780;6.084;2023-04-02T03:53:46;99127.59;;;5.30;100.00
9189;BME280;34313;50.780;6.084;2023-04-02T03:56:30;99126.63;;;5.33;100.00
9189;BME280;34313;50.780;6.084;2023-04-02T03:59:09;99135.88;;;5.40;100.00
9189;BME280;34313;50.780;6.084;2023-04-02T04:01:42;99140.19;;;5.41;100.00
9189;BME280;34313;50.780;6.084;2023-04-02T04:04:16;99135.53;;;5.48;100.00
9189;BME280;34313;50.780;6.084;2023-04-02T04:06:45;99143.38;;;5.48;100.00
9189;BME280;34313;50.780;6.084;2023-04-02T04:09:22;99150.75;;;5.59;100.00
9189;BME280;34313;50.780;6.084;2023-04-02T04:11:52;99151.09;;;5.51;100.00
9189;BME280;34313;50.780;6.084;2023-04-02T04:14:32;99164.22;;;5.49;100.00
9189;BME280;34313;50.780;6.084;2023-04-02T04:17:10;99159.19;;;5.45;100.00
9189;BME280;34313;50.780;6.084;2023-04-02T04:19:58;99177.91;;;5.56;100.00
9189;BME280;34313;50.780;6.084;2023-04-02T04:22:26;99181.22;;;5.60;100.00
9189;BME280;34313;50.780;6.084;2023-04-02T04:25:06;99193.97;;;5.47;100.00
9189;BME280;34313;50.780;6.084;2023-04-02T04:28:18;99209.13;;;5.39;100.00
9189;BME280;34313;50.780;6.084;2023-04-02T04:30:57;99202.06;;;5.41;100.00
9189;BME280;34313;50.780;6.084;2023-04-02T04:33:27;99205.59;;;5.40;100.00
9189;BME280;34313;50.780;6.084;2023-04-02T04:36:00;99214.88;;;5.26;100.00
9189;BME280;34313;50.780;6.084;2023-04-02T04:38:34;99222.47;;;5.10;100.00
9189;BME280;34313;50.780;6.084;2023-04-02T04:41:13;99224.47;;;5.04;100.00
9189;BME280;34313;50.780;6.084;2023-04-02T04:46:15;99231.16;;;4.89;100.00
9189;BME280;34313;50.780;6.084;2023-04-02T04:51:36;99245.31;;;4.83;100.00
9189;BME280;34313;50.780;6.084;2023-04-02T04:54:03;99249.91;;;4.77;100.00
9189;BME280;34313;50.780;6.084;2023-04-02T04:56:29;99261.75;;;4.85;100.00
9189;BME280;34313;50.780;6.084;2023-04-02T04:59:23;99266.81;;;4.90;100.00
9189;BME280;34313;50.780;6.084;2023-04-02T05:02:10;99280.84;;;4.87;100.00
9189;BME280;34313;50.780;6.084;2023-04-02T05:04:41;99275.50;;;4.90;100.00
9189;BME280;34313;50.780;6.084;2023-04-02T05:07:17;99278.81;;;4.94;100.00
9189;BME280;34313;50.780;6.084;2023-04-02T05:09:57;99282.13;;;4.99;100.00
9189;BME280;34313;50.780;6.084;2023-04-02T05:18:07;99307.13;;;5.05;100.00
9189;BME280;34313;50.780;6.084;2023-04-02T05:20:40;99313.22;;;5.05;100.00
9189;BME280;34313;50.780;6.084;2023-04-02T05:23:14;99314.63;;;5.14;100.00
9189;BME280;34313;50.780;6.084;2023-04-02T05:25:54;99312.03;;;5.14;100.00
9189;BME280;34313;50.780;6.084;2023-04-02T05:31:40;99319.66;;;5.19;100.00
9189;BME280;34313;50.780;6.084;2023-04-02T05:34:09;99321.69;;;5.12;100.00
9189;BME280;34313;50.780;6.084;2023-04-02T05:36:36;99323.50;;;5.10;100.00
9189;BME280;34313;50.780;6.084;2023-04-02T05:39:01;99340.09;;;5.09;100.00
9189;BME280;34313;50.780;6.084;2023-04-02T05:41:39;99343.13;;;4.98;100.00
9189;BME280;34313;50.780;6.084;2023-04-02T05:44:30;99357.00;;;4.99;100.00
9189;BME280;34313;50.780;6.084;2023-04-02T05:47:25;99357.44;;;4.88;100.00
9189;BME280;34313;50.780;6.084;2023-04-02T05:50:12;99361.91;;;4.84;100.00
9189;BME280;34313;50.780;6.084;2023-04-02T05:52:45;99370.06;;;4.75;100.00
9189;BME280;34313;50.780;6.084;2023-04-02T05:57:41;99379.38;;;4.59;100.00
9189;BME280;34313;50.780;6.084;2023-04-02T06:00:14;99383.09;;;4.51;100.00
9189;BME280;34313;50.780;6.084;2023-04-02T06:02:57;99388.13;;;4.58;100.00
9189;BME280;34313;50.780;6.084;2023-04-02T06:05:31;99399.50;;;4.55;100.00
9189;BME280;34313;50.780;6.084;2023-04-02T06:08:03;99403.13;;;4.51;100.00
9189;BME280;34313;50.780;6.084;2023-04-02T06:10:36;99404.88;;;4.50;100.00
9189;BME280;34313;50.780;6.084;2023-04-02T06:13:07;99412.59;;;4.53;100.00
9189;BME280;34313;50.780;6.084;2023-04-02T06:15:34;99415.53;;;4.44;100.00
9189;BME280;34313;50.780;6.084;2023-04-02T06:20:28;99430.34;;;4.44;100.00
9189;BME280;34313;50.780;6.084;2023-04-02T06:23:12;99441.50;;;4.22;100.00
9189;BME280;34313;50.780;6.084;2023-04-02T06:25:58;99444.41;;;4.13;100.00
9189;BME280;34313;50.780;6.084;2023-04-02T06:28:40;99441.31;;;4.02;100.00
9189;BME280;34313;50.780;6.084;2023-04-02T06:31:21;99458.31;;;4.13;100.00
9189;BME280;34313;50.780;6.084;2023-04-02T06:33:47;99455.06;;;4.07;100.00
9189;BME280;34313;50.780;6.084;2023-04-02T06:36:17;99464.22;;;4.19;100.00
9189;BME280;34313;50.780;6.084;2023-04-02T06:38:43;99464.09;;;4.23;100.00
9189;BME280;34313;50.780;6.084;2023-04-02T06:41:16;99474.56;;;4.22;100.00
9189;BME280;34313;50.780;6.084;2023-04-02T06:43:46;99478.91;;;4.23;100.00
9189;BME280;34313;50.780;6.084;2023-04-02T06:46:30;99482.31;;;4.25;100.00
9189;BME280;34313;50.780;6.084;2023-04-02T06:49:09;99488.09;;;4.33;100.00
9189;BME280;34313;50.780;6.084;2023-04-02T06:51:38;99503.63;;;4.38;100.00
9189;BME280;34313;50.780;6.084;2023-04-02T06:54:05;99501.84;;;4.38;100.00
9189;BME280;34313;50.780;6.084;2023-04-02T06:56:41;99509.22;;;4.25;100.00
9189;BME280;34313;50.780;6.084;2023-04-02T06:59:08;99508.22;;;4.29;100.00
9189;BME280;34313;50.780;6.084;2023-04-02T07:01:47;99503.47;;;4.15;100.00
9189;BME280;34313;50.780;6.084;2023-04-02T07:04:14;99519.75;;;4.22;100.00
9189;BME280;34313;50.780;6.084;2023-04-02T07:06:40;99522.31;;;4.24;100.00
9189;BME280;34313;50.780;6.084;2023-04-02T07:09:06;99530.91;;;4.27;100.00
9189;BME280;34313;50.780;6.084;2023-04-02T07:11:31;99536.28;;;4.23;100.00
9189;BME280;34313;50.780;6.084;2023-04-02T07:13:56;99537.88;;;4.27;100.00
9189;BME280;34313;50.780;6.084;2023-04-02T07:16:24;99548.94;;;4.35;100.00
9189;BME280;34313;50.780;6.084;2023-04-02T07:18:50;99555.31;;;4.26;100.00
9189;BME280;34313;50.780;6.084;2023-04-02T07:21:16;99569.06;;;4.31;100.00
9189;BME280;34313;50.780;6.084;2023-04-02T07:23:41;99567.47;;;4.26;100.00
9189;BME280;34313;50.780;6.084;2023-04-02T07:26:07;99576.22;;;4.25;100.00
9189;BME280;34313;50.780;6.084;2023-04-02T07:28:34;99577.19;;;4.21;100.00
9189;BME280;34313;50.780;6.084;2023-04-02T07:30:59;99586.22;;;4.10;100.00
9189;BME280;34313;50.780;6.084;2023-04-02T07:33:27;99587.53;;;4.24;100.00
9189;BME280;34313;50.780;6.084;2023-04-02T07:35:55;99593.13;;;4.11;100.00
9189;BME280;34313;50.780;6.084;2023-04-02T07:38:21;99602.53;;;4.17;100.00
9189;BME280;34313;50.780;6.084;2023-04-02T07:40:46;99596.56;;;4.13;100.00
9189;BME280;34313;50.780;6.084;2023-04-02T07:43:12;99597.94;;;4.25;100.00
9189;BME280;34313;50.780;6.084;2023-04-02T07:45:37;99615.78;;;4.11;100.00
9189;BME280;34313;50.780;6.084;2023-04-02T07:48:07;99628.44;;;3.93;100.00
9189;BME280;34313;50.780;6.084;2023-04-02T07:50:33;99629.28;;;3.94;100.00
9189;BME280;34313;50.780;6.084;2023-04-02T07:52:58;99638.13;;;3.90;100.00
9189;BME280;34313;50.780;6.084;2023-04-02T07:55:24;99632.00;;;3.91;100.00
9189;BME280;34313;50.780;6.084;2023-04-02T07:57:52;99638.03;;;3.93;100.00
9189;BME280;34313;50.780;6.084;2023-04-02T08:00:18;99637.84;;;3.99;100.00
9189;BME280;34313;50.780;6.084;2023-04-02T08:02:44;99637.53;;;4.10;100.00
9189;BME280;34313;50.780;6.084;2023-04-02T08:05:10;99653.94;;;4.13;100.00
9189;BME280;34313;50.780;6.084;2023-04-02T08:07:36;99644.63;;;4.05;100.00
9189;BME280;34313;50.780;6.084;2023-04-02T08:10:03;99652.50;;;4.03;100.00
9189;BME280;34313;50.780;6.084;2023-04-02T08:12:29;99663.75;;;4.05;100.00
9189;BME280;34313;50.780;6.084;2023-04-02T08:14:54;99668.28;;;3.98;100.00
9189;BME280;34313;50.780;6.084;2023-04-02T08:17:20;99670.44;;;3.84;100.00
9189;BME280;34313;50.780;6.084;2023-04-02T08:19:46;99669.56;;;3.84;100.00
9189;BME280;34313;50.780;6.084;2023-04-02T08:22:11;99678.13;;;3.89;100.00
9189;BME280;34313;50.780;6.084;2023-04-02T08:24:37;99664.38;;;3.82;100.00
9189;BME280;34313;50.780;6.084;2023-04-02T08:27:02;99689.16;;;3.98;100.00
9189;BME280;34313;50.780;6.084;2023-04-02T08:29:29;99685.31;;;3.81;100.00
9189;BME280;34313;50.780;6.084;2023-04-02T08:31:57;99691.25;;;3.86;100.00
9189;BME280;34313;50.780;6.084;2023-04-02T08:34:23;99696.13;;;3.98;100.00
9189;BME280;34313;50.780;6.084;2023-04-02T08:36:48;99711.22;;;3.87;100.00
9189;BME280;34313;50.780;6.084;2023-04-02T08:39:13;99697.19;;;3.91;100.00
9189;BME280;34313;50.780;6.084;2023-04-02T08:41:47;99719.75;;;3.92;100.00
9189;BME280;34313;50.780;6.084;2023-04-02T08:44:38;99728.53;;;3.89;100.00
9189;BME280;34313;50.780;6.084;2023-04-02T08:47:08;99735.03;;;3.73;100.00
9189;BME280;34313;50.780;6.084;2023-04-02T08:49:42;99741.84;;;3.78;100.00
9189;BME280;34313;50.780;6.084;2023-04-02T08:52:19;99739.97;;;3.84;100.00
9189;BME280;34313;50.780;6.084;2023-04-02T08:54:45;99748.91;;;3.73;100.00
9189;BME280;34313;50.780;6.084;2023-04-02T08:59:45;99751.09;;;3.90;100.00
9189;BME280;34313;50.780;6.084;2023-04-02T09:02:34;99766.22;;;3.77;100.00
9189;BME280;34313;50.780;6.084;2023-04-02T09:05:05;99761.97;;;3.73;100.00
9189;BME280;34313;50.780;6.084;2023-04-02T09:07:31;99761.84;;;3.78;100.00
9189;BME280;34313;50.780;6.084;2023-04-02T09:09:58;99762.47;;;3.88;100.00
9189;BME280;34313;50.780;6.084;2023-04-02T09:12:30;99776.00;;;4.02;100.00
9189;BME280;34313;50.780;6.084;2023-04-02T09:15:27;99775.81;;;4.08;100.00
9189;BME280;34313;50.780;6.084;2023-04-02T09:18:15;99770.13;;;3.94;100.00
9189;BME280;34313;50.780;6.084;2023-04-02T09:20:42;99778.31;;;3.80;100.00
9189;BME280;34313;50.780;6.084;2023-04-02T09:23:14;99785.84;;;3.91;100.00
9189;BME280;34313;50.780;6.084;2023-04-02T09:25:44;99793.56;;;3.61;100.00
9189;BME280;34313;50.780;6.084;2023-04-02T09:28:10;99795.03;;;3.71;100.00
9189;BME280;34313;50.780;6.084;2023-04-02T09:33:51;99803.31;;;3.87;100.00
9189;BME280;34313;50.780;6.084;2023-04-02T09:36:38;99818.78;;;3.95;100.00
9189;BME280;34313;50.780;6.084;2023-04-02T09:39:24;99822.31;;;3.92;100.00
9189;BME280;34313;50.780;6.084;2023-04-02T09:41:50;99825.69;;;3.96;100.00
9189;BME280;34313;50.780;6.084;2023-04-02T09:44:24;99828.44;;;3.91;100.00
9189;BME280;34313;50.780;6.084;2023-04-02T09:46:58;99839.56;;;3.98;100.00
9189;BME280;34313;50.780;6.084;2023-04-02T09:49:31;99837.53;;;4.09;100.00
9189;BME280;34313;50.780;6.084;2023-04-02T09:52:17;99850.81;;;4.00;100.00
9189;BME280;34313;50.780;6.084;2023-04-02T09:54:44;99858.81;;;3.92;100.00
9189;BME280;34313;50.780;6.084;2023-04-02T09:57:21;99867.56;;;3.91;100.00
9189;BME280;34313;50.780;6.084;2023-04-02T10:00:22;99860.97;;;3.75;100.00
9189;BME280;34313;50.780;6.084;2023-04-02T10:03:02;99871.28;;;3.81;100.00
9189;BME280;34313;50.780;6.084;2023-04-02T10:05:29;99874.94;;;3.74;100.00
9189;BME280;34313;50.780;6.084;2023-04-02T10:08:06;99879.06;;;3.83;100.00
9189;BME280;34313;50.780;6.084;2023-04-02T10:10:39;99891.31;;;3.79;100.00
9189;BME280;34313;50.780;6.084;2023-04-02T10:16:04;99902.22;;;3.95;100.00
9189;BME280;34313;50.780;6.084;2023-04-02T10:18:50;99902.22;;;3.95;100.00
9189;BME280;34313;50.780;6.084;2023-04-02T10:21:33;99889.06;;;4.00;100.00
9189;BME280;34313;50.780;6.084;2023-04-02T10:24:00;99898.91;;;3.88;100.00
9189;BME280;34313;50.780;6.084;2023-04-02T10:26:40;99903.44;;;4.16;100.00
9189;BME280;34313;50.780;6.084;2023-04-02T10:32:06;99921.25;;;4.66;100.00
9189;BME280;34313;50.780;6.084;2023-04-02T10:34:46;99914.53;;;4.57;100.00
9189;BME280;34313;50.780;6.084;2023-04-02T10:37:48;99918.88;;;4.58;100.00
9189;BME280;34313;50.780;6.084;2023-04-02T10:45:38;99925.53;;;4.70;100.00
9189;BME280;34313;50.780;6.084;2023-04-02T10:48:37;99932.31;;;4.76;100.00
9189;BME280;34313;50.780;6.084;2023-04-02T10:56:16;99952.78;;;4.60;100.00
9189;BME280;34313;50.780;6.084;2023-04-02T11:01:21;99959.88;;;4.54;100.00
9189;BME280;34313;50.780;6.084;2023-04-02T11:04:16;99954.78;;;4.48;100.00
9189;BME280;34313;50.780;6.084;2023-04-02T11:06:46;99961.56;;;4.55;100.00
9189;BME280;34313;50.780;6.084;2023-04-02T11:09:17;99966.34;;;4.72;100.00
9189;BME280;34313;50.780;6.084;2023-04-02T11:11:46;99974.25;;;4.69;100.00
9189;BME280;34313;50.780;6.084;2023-04-02T11:14:20;99973.38;;;4.70;100.00
9189;BME280;34313;50.780;6.084;2023-04-02T11:16:50;99975.03;;;4.73;100.00
9189;BME280;34313;50.780;6.084;2023-04-02T11:21:42;99983.19;;;4.93;100.00
9189;BME280;34313;50.780;6.084;2023-04-02T11:27:06;99977.47;;;5.12;100.00
9189;BME280;34313;50.780;6.084;2023-04-02T11:29:51;99989.09;;;5.00;100.00
9189;BME280;34313;50.780;6.084;2023-04-02T11:37:39;100003.72;;;4.74;100.00
9189;BME280;34313;50.780;6.084;2023-04-02T11:42:32;100013.13;;;4.80;100.00
9189;BME280;34313;50.780;6.084;2023-04-02T11:45:31;100017.47;;;4.81;100.00
9189;BME280;34313;50.780;6.084;2023-04-02T11:55:32;100041.94;;;4.79;100.00
9189;BME280;34313;50.780;6.084;2023-04-02T12:01:16;100048.81;;;4.81;100.00
9189;BME280;34313;50.780;6.084;2023-04-02T12:09:28;100044.44;;;5.15;100.00
9189;BME280;34313;50.780;6.084;2023-04-02T12:11:57;100037.34;;;5.20;100.00
9189;BME280;34313;50.780;6.084;2023-04-02T12:19:58;100044.78;;;5.65;100.00
9189;BME280;34313;50.780;6.084;2023-04-02T12:22:28;100053.78;;;5.84;100.00
9189;BME280;34313;50.780;6.084;2023-04-02T12:24:59;100056.66;;;5.77;100.00
9189;BME280;34313;50.780;6.084;2023-04-02T12:27:27;100061.25;;;5.98;100.00
9189;BME280;34313;50.780;6.084;2023-04-02T12:29:54;100061.19;;;6.01;100.00
9189;BME280;34313;50.780;6.084;2023-04-02T12:32:23;100059.81;;;5.86;100.00
9189;BME280;34313;50.780;6.084;2023-04-02T12:34:50;100064.00;;;5.92;100.00
9189;BME280;34313;50.780;6.084;2023-04-02T12:37:25;100074.38;;;5.97;100.00
9189;BME280;34313;50.780;6.084;2023-04-02T12:40:00;100063.34;;;5.85;99.84
9189;BME280;34313;50.780;6.084;2023-04-02T12:42:34;100070.06;;;5.64;100.00
9189;BME280;34313;50.780;6.084;2023-04-02T12:45:03;100076.00;;;5.69;100.00
9189;BME280;34313;50.780;6.084;2023-04-02T12:47:29;100075.09;;;5.72;100.00
9189;BME280;34313;50.780;6.084;2023-04-02T12:49:57;100087.13;;;6.08;100.00
9189;BME280;34313;50.780;6.084;2023-04-02T12:52:24;100080.34;;;6.30;100.00
9189;BME280;34313;50.780;6.084;2023-04-02T12:54:56;100096.03;;;6.30;98.33
9189;BME280;34313;50.780;6.084;2023-04-02T13:00:39;100104.28;;;6.18;97.92
9189;BME280;34313;50.780;6.084;2023-04-02T13:02:45;100097.88;;;5.98;98.25
9189;BME280;34313;50.780;6.084;2023-04-02T13:05:11;100096.06;;;6.00;99.40
9189;BME280;34313;50.780;6.084;2023-04-02T13:07:37;100093.59;;;5.94;99.04
9189;BME280;34313;50.780;6.084;2023-04-02T13:10:24;100093.06;;;5.83;99.60
9189;BME280;34313;50.780;6.084;2023-04-02T13:12:57;100100.84;;;5.86;100.00
9189;BME280;34313;50.780;6.084;2023-04-02T13:15:30;100100.84;;;5.86;99.65
9189;BME280;34313;50.780;6.084;2023-04-02T13:18:12;100103.78;;;5.75;99.14
9189;BME280;34313;50.780;6.084;2023-04-02T13:20:42;100108.69;;;5.86;99.32
9189;BME280;34313;50.780;6.084;2023-04-02T13:25:57;100108.41;;;5.95;98.05
9189;BME280;34313;50.780;6.084;2023-04-02T13:28:23;100117.66;;;5.77;99.06
9189;BME280;34313;50.780;6.084;2023-04-02T13:30:49;100113.00;;;5.87;99.16
9189;BME280;34313;50.780;6.084;2023-04-02T13:33:14;100116.56;;;5.84;99.84
9189;BME280;34313;50.780;6.084;2023-04-02T13:35:40;100123.47;;;5.87;98.78
9189;BME280;34313;50.780;6.084;2023-04-02T13:38:06;100122.84;;;5.79;98.78
9189;BME280;34313;50.780;6.084;2023-04-02T13:40:33;100132.00;;;5.62;98.92
9189;BME280;34313;50.780;6.084;2023-04-02T13:42:59;100131.88;;;5.36;100.00
9189;BME280;34313;50.780;6.084;2023-04-02T13:45:37;100141.19;;;5.46;100.00
9189;BME280;34313;50.780;6.084;2023-04-02T13:48:04;100129.38;;;5.31;100.00
9189;BME280;34313;50.780;6.084;2023-04-02T13:50:33;100136.84;;;5.45;100.00
9189;BME280;34313;50.780;6.084;2023-04-02T13:53:04;100146.81;;;5.63;100.00
9189;BME280;34313;50.780;6.084;2023-04-02T13:55:37;100154.97;;;5.84;99.80
9189;BME280;34313;50.780;6.084;2023-04-02T13:58:04;100147.50;;;5.70;98.04
9189;BME280;34313;50.780;6.084;2023-04-02T14:00:31;100154.81;;;5.57;98.55
9189;BME280;34313;50.780;6.084;2023-04-02T14:03:05;100157.16;;;5.68;98.96
9189;BME280;34313;50.780;6.084;2023-04-02T14:11:40;100172.34;;;6.18;96.91
9189;BME280;34313;50.780;6.084;2023-04-02T14:23:26;100184.91;;;5.74;96.56
9189;BME280;34313;50.780;6.084;2023-04-02T14:29:19;100198.38;;;5.91;95.19
9189;BME280;34313;50.780;6.084;2023-04-02T14:37:32;100197.66;;;5.84;94.83
9189;BME280;34313;50.780;6.084;2023-04-02T14:42:59;100222.63;;;5.65;95.11
9189;BME280;34313;50.780;6.084;2023-04-02T14:51:16;100198.31;;;5.61;95.01
9189;BME280;34313;50.780;6.084;2023-04-02T14:53:53;100198.00;;;5.72;94.82
9189;BME280;34313;50.780;6.084;2023-04-02T14:56:22;100199.88;;;5.67;94.74
9189;BME280;34313;50.780;6.084;2023-04-02T14:58:53;100205.44;;;5.87;94.55
9189;BME280;34313;50.780;6.084;2023-04-02T15:01:30;100203.81;;;5.82;94.68
9189;BME280;34313;50.780;6.084;2023-04-02T15:04:02;100207.69;;;5.68;94.13
9189;BME280;34313;50.780;6.084;2023-04-02T15:06:43;100222.97;;;5.84;93.97
9189;BME280;34313;50.780;6.084;2023-04-02T15:09:20;100228.66;;;5.67;95.17
9189;BME280;34313;50.780;6.084;2023-04-02T15:11:54;100229.22;;;5.78;93.44
9189;BME280;34313;50.780;6.084;2023-04-02T15:14:31;100231.56;;;5.56;93.65
9189;BME280;34313;50.780;6.084;2023-04-02T15:16:57;100237.84;;;5.49;93.57
9189;BME280;34313;50.780;6.084;2023-04-02T15:19:23;100239.53;;;5.50;93.29
9189;BME280;34313;50.780;6.084;2023-04-02T15:25:49;100245.22;;;5.66;92.71
9189;BME280;34313;50.780;6.084;2023-04-02T15:28:34;100240.63;;;5.41;92.08
9189;BME280;34313;50.780;6.084;2023-04-02T15:31:11;100257.53;;;5.28;93.62
9189;BME280;34313;50.780;6.084;2023-04-02T15:33:41;100253.94;;;5.32;92.97
9189;BME280;34313;50.780;6.084;2023-04-02T15:38:58;100259.56;;;5.15;94.50
9189;BME280;34313;50.780;6.084;2023-04-02T15:41:26;100263.84;;;5.19;94.35
9189;BME280;34313;50.780;6.084;2023-04-02T15:44:12;100263.66;;;5.27;94.69
9189;BME280;34313;50.780;6.084;2023-04-02T15:55:13;100270.28;;;5.04;93.92
9189;BME280;34313;50.780;6.084;2023-04-02T16:00:35;100289.34;;;5.08;94.58
9189;BME280;34313;50.780;6.084;2023-04-02T16:03:25;100298.72;;;5.17;94.27
9189;BME280;34313;50.780;6.084;2023-04-02T16:06:33;100298.09;;;5.07;94.21
9189;BME280;34313;50.780;6.084;2023-04-02T16:09:26;100297.44;;;4.97;93.75
9189;BME280;34313;50.780;6.084;2023-04-02T16:11:59;100306.69;;;5.12;93.94
9189;BME280;34313;50.780;6.084;2023-04-02T16:14:35;100304.91;;;5.14;93.17
9189;BME280;34313;50.780;6.084;2023-04-02T16:17:09;100303.19;;;5.13;92.89
9189;BME280;34313;50.780;6.084;2023-04-02T16:19:47;100292.94;;;5.04;93.83
9189;BME280;34313;50.780;6.084;2023-04-02T16:22:30;100318.09;;;5.08;93.94
9189;BME280;34313;50.780;6.084;2023-04-02T16:25:09;100310.41;;;5.02;94.29